createdAt,value
2018-01-07T00:00:29.040Z,5.25
2018-01-07T00:01:29.071Z,5.33
2018-01-07T00:02:29.088Z,5.1
2018-01-07T00:03:29.111Z,5.22
2018-01-07T00:04:29.104Z,5.18
2018-01-07T00:05:29.133Z,5.12
2018-01-07T00:06:29.125Z,5.2
2018-01-07T00:07:29.159Z,5.1
2018-01-07T00:09:29.192Z,5.15
2018-01-07T00:10:29.191Z,5.13
2018-01-07T00:11:29.227Z,4.99
2018-01-07T00:12:29.223Z,5.03
2018-01-07T00:13:29.233Z,5.07
2018-01-07T00:14:29.245Z,5
2018-01-07T00:15:43.947Z,5.1
2018-01-07T00:16:29.285Z,5.02
2018-01-07T00:17:29.073Z,5.1
2018-01-07T00:18:29.329Z,5.12
2018-01-07T00:19:29.090Z,5.04
2018-01-07T00:20:29.343Z,5.02
2018-01-07T00:22:29.385Z,5.1
2018-01-07T00:23:44.091Z,5.06
2018-01-07T00:25:29.459Z,5.06
2018-01-07T00:26:29.430Z,5.03
2018-01-07T00:27:29.490Z,5.04
2018-01-07T00:28:29.527Z,5.06
2018-01-07T00:29:29.229Z,4.92
2018-01-07T00:30:44.189Z,5.1
2018-01-07T00:31:29.281Z,4.97
2018-01-07T00:32:29.551Z,4.99
2018-01-07T00:33:29.560Z,4.96
2018-01-07T00:34:29.563Z,4.97
2018-01-07T00:35:29.589Z,4.91
2018-01-07T00:36:29.584Z,5.02
2018-01-07T00:37:29.617Z,5.03
2018-01-07T00:39:44.065Z,4.89
2018-01-07T00:40:29.650Z,4.88
2018-01-07T00:41:29.686Z,4.89
2018-01-07T00:42:29.679Z,4.88
2018-01-07T00:43:44.374Z,4.97
2018-01-07T00:44:29.715Z,4.99
2018-01-07T00:45:29.764Z,4.85
2018-01-07T00:46:29.767Z,4.88
2018-01-07T00:47:29.802Z,4.88
2018-01-07T00:48:29.795Z,4.84
2018-01-07T00:49:29.560Z,4.84
2018-01-07T00:51:29.816Z,4.91
2018-01-07T00:52:29.828Z,4.75
2018-01-07T00:53:29.872Z,4.89
2018-01-07T00:54:29.622Z,4.96
2018-01-07T00:55:29.884Z,4.88
2018-01-07T00:56:29.894Z,4.88
2018-01-07T00:57:29.913Z,4.88
2018-01-07T00:58:29.969Z,4.91
2018-01-07T00:59:29.944Z,4.86
2018-01-07T01:00:44.639Z,4.85
2018-01-07T01:01:29.993Z,4.92
2018-01-07T01:02:44.691Z,4.88
2018-01-07T01:03:30.024Z,4.86
2018-01-07T01:04:29.781Z,4.73
2018-01-07T01:05:29.801Z,4.84
2018-01-07T01:06:30.066Z,4.7
2018-01-07T01:08:30.092Z,4.85
2018-01-07T01:09:30.114Z,4.77
2018-01-07T01:12:30.161Z,4.8
2018-01-07T01:14:30.201Z,4.69
2018-01-07T01:15:30.187Z,4.77
2018-01-07T01:16:30.231Z,4.67
2018-01-07T01:17:30.252Z,4.66
2018-01-07T01:18:44.908Z,4.7
2018-01-07T01:19:30.266Z,4.72
2018-01-07T01:20:30.265Z,4.69
2018-01-07T01:21:30.294Z,4.73
2018-01-07T01:22:30.291Z,4.75
2018-01-07T01:23:30.354Z,4.8
2018-01-07T01:24:30.075Z,4.73
2018-01-07T01:25:30.358Z,4.72
2018-01-07T01:27:30.120Z,4.62
2018-01-07T01:28:30.167Z,4.69
2018-01-07T01:29:30.420Z,4.65
2018-01-07T01:30:45.100Z,4.69
2018-01-07T01:31:30.451Z,4.78
2018-01-07T01:32:30.472Z,4.69
2018-01-07T01:33:30.474Z,4.69
2018-01-07T01:34:45.168Z,4.69
2018-01-07T01:35:30.511Z,4.69
2018-01-07T01:36:30.506Z,4.78
2018-01-07T01:37:30.530Z,4.75
2018-01-07T01:38:30.551Z,4.84
2018-01-07T01:39:30.558Z,4.7
2018-01-07T01:41:45.265Z,4.82
2018-01-07T01:43:45.042Z,4.8
2018-01-07T01:44:45.067Z,4.72
2018-01-07T01:45:30.660Z,4.7
2018-01-07T01:46:30.661Z,4.72
2018-01-07T01:47:30.433Z,4.8
2018-01-07T01:48:30.686Z,4.84
2018-01-07T01:49:45.379Z,4.66
2018-01-07T01:50:45.394Z,4.67
2018-01-07T01:51:30.745Z,4.67
2018-01-07T01:52:30.782Z,4.7
2018-01-07T01:53:30.784Z,4.7
2018-01-07T01:55:30.792Z,4.7
2018-01-07T01:56:30.808Z,4.8
2018-01-07T01:57:30.863Z,4.85
2018-01-07T01:58:30.879Z,4.63
2018-01-07T01:59:30.898Z,4.7
2018-01-07T02:00:30.620Z,4.66
2018-01-07T02:01:30.633Z,4.8
2018-01-07T02:02:30.666Z,4.75
2018-01-07T02:03:30.700Z,4.65
2018-01-07T02:04:30.692Z,4.67
2018-01-07T02:05:45.633Z,4.63
2018-01-07T02:06:30.983Z,4.66
2018-01-07T02:07:30.975Z,4.55
2018-01-07T02:08:31.006Z,4.62
2018-01-07T02:09:30.505Z,4.55
2018-01-07T02:10:31.044Z,4.59
2018-01-07T02:11:31.059Z,4.52
2018-01-07T02:12:31.052Z,4.5
2018-01-07T02:13:31.067Z,4.59
2018-01-07T02:15:31.118Z,4.52
2018-01-07T02:16:31.112Z,4.48
2018-01-07T02:17:31.130Z,4.5
2018-01-07T02:18:31.159Z,4.41
2018-01-07T02:19:31.220Z,4.48
2018-01-07T02:20:31.187Z,4.41
2018-01-07T02:21:31.217Z,4.45
2018-01-07T02:22:31.228Z,4.47
2018-01-07T02:23:31.222Z,4.45
2018-01-07T02:24:31.020Z,4.36
2018-01-07T02:26:31.301Z,4.32
2018-01-07T02:27:31.307Z,4.41
2018-01-07T02:28:31.289Z,4.36
2018-01-07T02:30:46.023Z,4.23
2018-01-07T02:31:31.358Z,4.33
2018-01-07T02:32:31.123Z,4.4
2018-01-07T02:33:31.117Z,4.34
2018-01-07T02:34:31.393Z,4.32
2018-01-07T02:35:31.420Z,4.37
2018-01-07T02:36:46.089Z,4.32
2018-01-07T02:37:46.124Z,4.33
2018-01-07T02:38:31.463Z,4.34
2018-01-07T02:39:31.488Z,4.26
2018-01-07T02:40:31.487Z,4.22
2018-01-07T02:41:31.486Z,4.3
2018-01-07T02:42:31.502Z,4.29
2018-01-07T02:44:31.575Z,4.32
2018-01-07T02:45:31.582Z,4.33
2018-01-07T02:46:46.259Z,4.36
2018-01-07T02:48:31.648Z,4.26
2018-01-07T02:49:31.613Z,4.2
2018-01-07T02:50:31.631Z,4.15
2018-01-07T02:51:31.653Z,4.26
2018-01-07T02:52:31.659Z,4.26
2018-01-07T02:53:46.355Z,4.3
2018-01-07T02:54:31.703Z,4.3
2018-01-07T02:55:31.725Z,4.15
2018-01-07T02:56:31.709Z,4.16
2018-01-07T02:57:31.727Z,4.15
2018-01-07T02:58:31.748Z,4.14
2018-01-07T02:59:31.752Z,4.11
2018-01-07T03:00:31.793Z,4.06
2018-01-07T03:01:31.846Z,4.02
2018-01-07T03:02:31.795Z,4.04
2018-01-07T03:03:31.861Z,4.02
2018-01-07T03:04:31.846Z,3.96
2018-01-07T03:05:31.877Z,4.05
2018-01-07T03:06:31.872Z,4.04
2018-01-07T03:07:31.916Z,4.02
2018-01-07T03:08:31.908Z,4
2018-01-07T03:09:46.579Z,4.04
2018-01-07T03:10:31.942Z,3.88
2018-01-07T03:11:31.957Z,3.88
2018-01-07T03:12:31.964Z,3.9
2018-01-07T03:13:31.987Z,3.87
2018-01-07T03:14:31.970Z,3.86
2018-01-07T03:15:32.037Z,3.91
2018-01-07T03:16:31.755Z,3.79
2018-01-07T03:19:32.070Z,3.91
2018-01-07T03:20:32.061Z,3.91
2018-01-07T03:21:31.878Z,3.93
2018-01-07T03:22:31.860Z,3.87
2018-01-07T03:23:31.874Z,3.88
2018-01-07T03:24:32.130Z,3.86
2018-01-07T03:25:46.843Z,3.9
2018-01-07T03:26:32.186Z,4.02
2018-01-07T03:27:31.912Z,3.93
2018-01-07T03:28:32.229Z,3.9
2018-01-07T03:29:32.221Z,3.88
2018-01-07T03:30:32.222Z,4.02
2018-01-07T03:31:32.246Z,4
2018-01-07T03:32:32.248Z,3.91
2018-01-07T03:33:32.282Z,3.91
2018-01-07T03:34:32.271Z,3.88
2018-01-07T03:35:47.082Z,3.93
2018-01-07T03:36:32.322Z,3.87
2018-01-07T03:37:32.350Z,3.9
2018-01-07T03:38:32.355Z,3.93
2018-01-07T03:39:47.023Z,3.79
2018-01-07T03:40:47.036Z,3.86
2018-01-07T03:41:32.141Z,3.84
2018-01-07T03:42:32.407Z,3.83
2018-01-07T03:43:32.405Z,3.91
2018-01-07T03:44:32.443Z,3.84
2018-01-07T03:45:32.516Z,3.97
2018-01-07T03:47:32.482Z,3.78
2018-01-07T03:48:32.501Z,3.86
2018-01-07T03:49:32.523Z,3.87
2018-01-07T03:50:32.257Z,3.93
2018-01-07T03:51:32.297Z,3.91
2018-01-07T03:52:32.543Z,3.94
2018-01-07T03:53:47.229Z,3.9
2018-01-07T03:54:32.573Z,3.8
2018-01-07T03:55:32.590Z,3.75
2018-01-07T03:56:32.344Z,3.86
2018-01-07T03:57:32.376Z,3.76
2018-01-07T03:58:32.377Z,3.73
2018-01-07T03:59:32.399Z,3.68
2018-01-07T04:00:32.661Z,3.87
2018-01-07T04:01:32.671Z,3.87
2018-01-07T04:02:32.474Z,3.7
2018-01-07T04:03:32.713Z,3.79
2018-01-07T04:04:32.461Z,3.7
2018-01-07T04:05:32.748Z,3.7
2018-01-07T04:06:32.802Z,3.73
2018-01-07T04:08:32.807Z,3.79
2018-01-07T04:09:32.817Z,3.79
2018-01-07T04:10:32.840Z,3.73
2018-01-07T04:11:32.599Z,3.84
2018-01-07T04:12:47.508Z,3.79
2018-01-07T04:13:32.872Z,3.76
2018-01-07T04:14:32.613Z,3.72
2018-01-07T04:15:32.897Z,3.86
2018-01-07T04:16:32.668Z,3.72
2018-01-07T04:17:32.652Z,3.65
2018-01-07T04:18:32.708Z,3.65
2018-01-07T04:19:33.012Z,3.65
2018-01-07T04:20:32.446Z,3.7
2018-01-07T04:21:32.714Z,3.6
2018-01-07T04:22:47.677Z,3.57
2018-01-07T04:23:32.998Z,3.6
2018-01-07T04:24:33.013Z,3.75
2018-01-07T04:25:32.798Z,3.75
2018-01-07T04:26:32.792Z,3.69
2018-01-07T04:27:33.082Z,3.68
2018-01-07T04:28:47.744Z,3.7
2018-01-07T04:29:33.086Z,3.75
2018-01-07T04:30:33.113Z,3.61
2018-01-07T04:33:33.150Z,3.6
2018-01-07T04:34:33.158Z,3.58
2018-01-07T04:35:32.946Z,3.54
2018-01-07T04:36:33.212Z,3.52
2018-01-07T04:38:33.217Z,3.57
2018-01-07T04:39:33.247Z,3.55
2018-01-07T04:40:33.244Z,3.47
2018-01-07T04:41:47.952Z,3.51
2018-01-07T04:42:33.290Z,3.5
2018-01-07T04:43:33.302Z,3.35
2018-01-07T04:44:48.004Z,3.5
2018-01-07T04:45:33.338Z,3.47
2018-01-07T04:46:33.327Z,3.58
2018-01-07T04:47:33.370Z,3.5
2018-01-07T04:48:33.398Z,3.51
2018-01-07T04:49:33.160Z,3.45
2018-01-07T04:50:33.431Z,3.43
2018-01-07T04:51:33.400Z,3.4
2018-01-07T04:52:33.174Z,3.48
2018-01-07T04:53:33.183Z,3.43
2018-01-07T04:54:48.145Z,3.32
2018-01-07T04:55:33.215Z,3.31
2018-01-07T04:56:33.519Z,3.51
2018-01-07T04:58:33.282Z,3.45
2018-01-07T04:59:33.539Z,3.39
2018-01-07T05:00:48.236Z,3.39
2018-01-07T05:01:33.557Z,3.31
2018-01-07T05:02:33.317Z,3.35
2018-01-07T05:04:33.620Z,3.35
2018-01-07T05:05:33.614Z,3.35
2018-01-07T05:06:33.622Z,3.31
2018-01-07T05:07:48.337Z,3.32
2018-01-07T05:08:33.665Z,3.31
2018-01-07T05:09:33.674Z,3.39
2018-01-07T05:10:33.678Z,3.28
2018-01-07T05:11:33.448Z,3.33
2018-01-07T05:12:33.470Z,3.32
2018-01-07T05:13:33.740Z,3.28
2018-01-07T05:14:33.773Z,3.23
2018-01-07T05:15:48.434Z,3.18
2018-01-07T05:16:33.770Z,3.28
2018-01-07T05:17:33.800Z,3.26
2018-01-07T05:18:33.570Z,3.21
2018-01-07T05:20:33.588Z,3.26
2018-01-07T05:23:33.635Z,3.24
2018-01-07T05:24:33.878Z,3.32
2018-01-07T05:25:33.645Z,3.29
2018-01-07T05:26:33.677Z,3.18
2018-01-07T05:27:33.930Z,3.26
2018-01-07T05:29:33.739Z,3.2
2018-01-07T05:30:48.652Z,3.31
2018-01-07T05:31:33.728Z,3.32
2018-01-07T05:32:34.018Z,3.26
2018-01-07T05:33:34.020Z,3.18
2018-01-07T05:34:34.049Z,3.23
2018-01-07T05:35:34.045Z,3.2
2018-01-07T05:36:34.106Z,3.21
2018-01-07T05:37:34.107Z,3.13
2018-01-07T05:38:34.121Z,3.1
2018-01-07T05:39:34.097Z,3.17
2018-01-07T05:40:34.127Z,3.1
2018-01-07T05:41:33.879Z,3.2
2018-01-07T05:42:33.900Z,3.06
2018-01-07T05:43:34.153Z,3.1
2018-01-07T05:44:34.190Z,3.2
2018-01-07T05:45:48.860Z,3.18
2018-01-07T05:46:33.966Z,3.17
2018-01-07T05:47:48.897Z,3.2
2018-01-07T05:48:33.990Z,3.15
2018-01-07T05:49:34.269Z,3.17
2018-01-07T05:50:33.783Z,3.15
2018-01-07T05:51:34.313Z,3.18
2018-01-07T05:52:34.037Z,3.23
2018-01-07T05:53:34.300Z,3.18
2018-01-07T05:54:34.328Z,3.23
2018-01-07T05:55:34.333Z,3.2
2018-01-07T05:56:34.354Z,3.14
2018-01-07T05:57:34.107Z,3.15
2018-01-07T05:58:34.376Z,3.15
2018-01-07T05:59:34.130Z,3.15
2018-01-07T06:00:34.170Z,3.15
2018-01-07T06:01:34.424Z,3.14
2018-01-07T06:02:34.199Z,3.18
2018-01-07T06:03:49.118Z,3.13
2018-01-07T06:04:34.201Z,3.18
2018-01-07T06:05:34.222Z,3.2
2018-01-07T06:07:33.996Z,3.15
2018-01-07T06:08:34.284Z,3.06
2018-01-07T06:09:34.540Z,3.06
2018-01-07T06:11:48.982Z,3
2018-01-07T06:12:34.080Z,2.99
2018-01-07T06:13:34.601Z,2.97
2018-01-07T06:14:34.603Z,2.92
2018-01-07T06:16:34.665Z,2.85
2018-01-07T06:17:34.664Z,2.89
2018-01-07T06:18:34.182Z,2.85
2018-01-07T06:19:49.345Z,2.74
2018-01-07T06:20:34.448Z,2.87
2018-01-07T06:21:34.475Z,2.81
2018-01-07T06:22:34.477Z,2.79
2018-01-07T06:23:34.731Z,2.82
2018-01-07T06:24:34.496Z,2.84
2018-01-07T06:25:34.750Z,2.82
2018-01-07T06:26:34.531Z,2.85
2018-01-07T06:27:34.804Z,2.81
2018-01-07T06:28:34.304Z,2.79
2018-01-07T06:29:34.583Z,2.74
2018-01-07T06:30:34.320Z,2.82
2018-01-07T06:31:49.275Z,2.69
2018-01-07T06:32:49.529Z,2.67
2018-01-07T06:33:49.547Z,2.81
2018-01-07T06:34:49.561Z,2.85
2018-01-07T06:35:49.596Z,2.81
2018-01-07T06:36:34.929Z,2.79
2018-01-07T06:37:34.918Z,2.77
2018-01-07T06:38:34.693Z,2.61
2018-01-07T06:39:34.954Z,2.71
2018-01-07T06:40:34.965Z,2.74
2018-01-07T06:42:34.748Z,2.71
2018-01-07T06:43:35.014Z,2.66
2018-01-07T06:44:35.022Z,2.66
2018-01-07T06:45:34.791Z,2.67
2018-01-07T06:46:35.072Z,2.71
2018-01-07T06:47:35.065Z,2.63
2018-01-07T06:48:34.842Z,2.75
2018-01-07T06:49:34.837Z,2.67
2018-01-07T06:50:49.801Z,2.59
2018-01-07T06:51:34.866Z,2.59
2018-01-07T06:52:35.158Z,2.72
2018-01-07T06:53:34.914Z,2.71
2018-01-07T06:54:34.930Z,2.71
2018-01-07T06:55:49.609Z,2.66
2018-01-07T06:56:34.954Z,2.69
2018-01-07T06:57:35.220Z,2.66
2018-01-07T06:59:35.247Z,2.74
2018-01-07T07:00:35.424Z,2.79
2018-01-07T07:01:35.300Z,2.67
2018-01-07T07:02:35.026Z,2.67
2018-01-07T07:03:35.322Z,2.6
2018-01-07T07:04:35.048Z,2.67
2018-01-07T07:05:35.067Z,2.56
2018-01-07T07:06:35.074Z,2.71
2018-01-07T07:07:35.087Z,2.71
2018-01-07T07:08:34.851Z,2.64
2018-01-07T07:09:35.122Z,2.64
2018-01-07T07:11:35.163Z,2.64
2018-01-07T07:12:35.187Z,2.74
2018-01-07T07:13:35.189Z,2.74
2018-01-07T07:14:35.454Z,2.72
2018-01-07T07:15:49.885Z,2.57
2018-01-07T07:16:35.467Z,2.67
2018-01-07T07:17:35.522Z,2.54
2018-01-07T07:18:35.253Z,2.59
2018-01-07T07:19:35.273Z,2.57
2018-01-07T07:20:50.197Z,2.61
2018-01-07T07:21:35.567Z,2.56
2018-01-07T07:22:50.226Z,2.57
2018-01-07T07:24:35.593Z,2.63
2018-01-07T07:25:35.591Z,2.61
2018-01-07T07:26:35.629Z,2.54
2018-01-07T07:27:35.622Z,2.59
2018-01-07T07:28:35.395Z,2.74
2018-01-07T07:29:35.668Z,2.69
2018-01-07T07:30:35.673Z,2.66
2018-01-07T07:31:35.445Z,2.77
2018-01-07T07:32:35.728Z,2.63
2018-01-07T07:33:35.741Z,2.69
2018-01-07T07:34:35.737Z,2.69
2018-01-07T07:35:35.501Z,2.78
2018-01-07T07:36:35.767Z,2.67
2018-01-07T07:37:35.788Z,2.72
2018-01-07T07:38:50.447Z,2.69
2018-01-07T07:39:35.531Z,2.77
2018-01-07T07:40:35.820Z,2.71
2018-01-07T07:42:35.859Z,2.74
2018-01-07T07:43:35.842Z,2.78
2018-01-07T07:44:35.365Z,2.75
2018-01-07T07:45:35.632Z,2.75
2018-01-07T07:46:35.912Z,2.63
2018-01-07T07:47:35.923Z,2.72
2018-01-07T07:48:35.409Z,2.69
2018-01-07T07:49:35.420Z,2.74
2018-01-07T07:50:35.989Z,2.67
2018-01-07T07:51:35.720Z,2.78
2018-01-07T07:52:35.983Z,2.75
2018-01-07T07:53:35.774Z,2.79
2018-01-07T07:54:50.419Z,2.75
2018-01-07T07:55:35.787Z,2.75
2018-01-07T07:57:36.036Z,2.78
2018-01-07T07:58:36.072Z,2.81
2018-01-07T08:00:35.595Z,2.79
2018-01-07T08:01:36.113Z,2.81
2018-01-07T08:02:35.862Z,2.79
2018-01-07T08:04:35.924Z,2.79
2018-01-07T08:05:36.167Z,2.74
2018-01-07T08:06:35.926Z,2.79
2018-01-07T08:07:36.177Z,2.79
2018-01-07T08:08:36.197Z,2.78
2018-01-07T08:10:50.916Z,2.82
2018-01-07T08:11:35.995Z,2.89
2018-01-07T08:12:36.252Z,2.82
2018-01-07T08:13:36.021Z,2.9
2018-01-07T08:14:36.057Z,2.87
2018-01-07T08:15:36.286Z,2.79
2018-01-07T08:16:36.312Z,2.77
2018-01-07T08:17:51.014Z,2.79
2018-01-07T08:18:51.027Z,2.79
2018-01-07T08:19:36.340Z,2.75
2018-01-07T08:20:36.141Z,2.67
2018-01-07T08:21:36.137Z,2.78
2018-01-07T08:22:36.380Z,2.79
2018-01-07T08:23:36.426Z,2.75
2018-01-07T08:24:51.089Z,2.79
2018-01-07T08:25:51.126Z,2.79
2018-01-07T08:26:36.488Z,2.82
2018-01-07T08:27:36.470Z,2.89
2018-01-07T08:28:36.257Z,2.81
2018-01-07T08:29:36.485Z,2.74
2018-01-07T08:30:35.995Z,2.82
2018-01-07T08:31:36.271Z,2.74
2018-01-07T08:32:36.551Z,2.74
2018-01-07T08:33:51.231Z,2.82
2018-01-07T08:34:36.598Z,2.82
2018-01-07T08:36:36.630Z,2.77
2018-01-07T08:37:36.617Z,2.66
2018-01-07T08:38:36.376Z,2.72
2018-01-07T08:39:36.632Z,2.79
2018-01-07T08:40:36.641Z,2.78
2018-01-07T08:41:36.160Z,2.78
2018-01-07T08:42:36.432Z,2.81
2018-01-07T08:43:36.703Z,2.78
2018-01-07T08:44:36.700Z,2.79
2018-01-07T08:45:36.481Z,2.77
2018-01-07T08:46:36.465Z,2.74
2018-01-07T08:47:36.731Z,2.78
2018-01-07T08:48:36.503Z,2.75
2018-01-07T08:49:36.772Z,2.74
2018-01-07T08:50:36.799Z,2.71
2018-01-07T08:51:51.235Z,2.77
2018-01-07T08:52:51.482Z,2.74
2018-01-07T08:53:36.579Z,2.69
2018-01-07T08:54:36.855Z,2.78
2018-01-07T08:55:36.627Z,2.77
2018-01-07T08:56:36.626Z,2.75
2018-01-07T08:57:51.561Z,2.78
2018-01-07T08:58:51.592Z,2.71
2018-01-07T08:59:36.920Z,2.71
2018-01-07T09:00:36.930Z,2.72
2018-01-07T09:01:36.934Z,2.78
2018-01-07T09:02:36.970Z,2.81
2018-01-07T09:03:36.986Z,2.78
2018-01-07T09:05:36.495Z,2.77
2018-01-07T09:06:36.759Z,2.81
2018-01-07T09:07:36.534Z,2.85
2018-01-07T09:08:37.032Z,2.81
2018-01-07T09:09:36.915Z,2.95
2018-01-07T09:10:36.816Z,2.85
2018-01-07T09:11:37.092Z,2.79
2018-01-07T09:12:37.116Z,2.9
2018-01-07T09:13:51.781Z,2.84
2018-01-07T09:14:37.136Z,2.87
2018-01-07T09:15:37.117Z,2.89
2018-01-07T09:16:37.144Z,2.9
2018-01-07T09:17:36.919Z,2.96
2018-01-07T09:18:37.164Z,2.96
2018-01-07T09:19:37.176Z,2.82
2018-01-07T09:20:37.198Z,2.81
2018-01-07T09:21:51.639Z,2.9
2018-01-07T09:22:37.216Z,2.77
2018-01-07T09:23:37.257Z,2.85
2018-01-07T09:24:51.935Z,2.89
2018-01-07T09:25:37.287Z,2.79
2018-01-07T09:26:52.072Z,2.84
2018-01-07T09:27:37.038Z,2.9
2018-01-07T09:28:37.081Z,2.84
2018-01-07T09:29:51.998Z,2.78
2018-01-07T09:30:37.362Z,2.81
2018-01-07T09:31:37.369Z,2.77
2018-01-07T09:32:37.383Z,2.78
2018-01-07T09:33:37.403Z,2.79
2018-01-07T09:34:37.153Z,2.85
2018-01-07T09:35:37.424Z,2.93
2018-01-07T09:36:37.416Z,2.87
2018-01-07T09:37:37.454Z,2.81
2018-01-07T09:38:37.446Z,2.82
2018-01-07T09:39:37.489Z,3
2018-01-07T09:40:37.499Z,3
2018-01-07T09:41:37.235Z,2.95
2018-01-07T09:42:37.274Z,2.93
2018-01-07T09:43:37.279Z,3.03
2018-01-07T09:44:37.278Z,2.95
2018-01-07T09:45:52.227Z,2.96
2018-01-07T09:46:37.580Z,2.96
2018-01-07T09:47:37.332Z,2.92
2018-01-07T09:48:37.352Z,2.96
2018-01-07T09:49:37.623Z,2.89
2018-01-07T09:50:52.323Z,2.82
2018-01-07T09:51:37.638Z,2.78
2018-01-07T09:52:37.640Z,2.81
2018-01-07T09:53:37.691Z,2.85
2018-01-07T09:54:52.374Z,2.79
2018-01-07T09:56:37.724Z,2.78
2018-01-07T09:57:37.483Z,2.84
2018-01-07T09:58:37.756Z,2.82
2018-01-07T09:59:37.787Z,2.85
2018-01-07T10:00:52.455Z,2.92
2018-01-07T10:01:37.791Z,2.9
2018-01-07T10:02:37.779Z,2.9
2018-01-07T10:03:37.548Z,2.87
2018-01-07T10:04:37.830Z,2.97
2018-01-07T10:05:37.573Z,2.92
2018-01-07T10:06:37.837Z,2.96
2018-01-07T10:07:52.289Z,2.96
2018-01-07T10:08:37.872Z,2.92
2018-01-07T10:09:37.916Z,2.99
2018-01-07T10:10:37.914Z,2.97
2018-01-07T10:11:37.674Z,2.92
2018-01-07T10:12:37.708Z,2.78
2018-01-07T10:13:52.379Z,2.97
2018-01-07T10:14:37.725Z,2.95
2018-01-07T10:15:37.721Z,3.03
2018-01-07T10:16:37.978Z,3.03
2018-01-07T10:17:38.031Z,3.06
2018-01-07T10:18:38.075Z,3.02
2018-01-07T10:19:37.799Z,3.05
2018-01-07T10:20:38.068Z,3.05
2018-01-07T10:21:38.073Z,3.17
2018-01-07T10:23:38.118Z,3.18
2018-01-07T10:24:38.138Z,3.26
2018-01-07T10:25:38.152Z,3.29
2018-01-07T10:26:38.141Z,3.47
2018-01-07T10:27:52.820Z,3.6
2018-01-07T10:28:38.171Z,3.6
2018-01-07T10:29:38.213Z,3.5
2018-01-07T10:30:37.947Z,3.57
2018-01-07T10:31:38.281Z,3.6
2018-01-07T10:32:52.906Z,3.55
2018-01-07T10:33:38.239Z,3.65
2018-01-07T10:34:38.258Z,3.65
2018-01-07T10:35:38.250Z,3.57
2018-01-07T10:36:38.272Z,3.48
2018-01-07T10:38:38.311Z,3.62
2018-01-07T10:41:38.349Z,3.62
2018-01-07T10:43:38.397Z,3.61
2018-01-07T10:44:38.390Z,3.55
2018-01-07T10:45:38.423Z,3.55
2018-01-07T10:46:38.459Z,3.5
2018-01-07T10:47:38.203Z,3.58
2018-01-07T10:48:53.126Z,3.62
2018-01-07T10:49:38.207Z,3.61
2018-01-07T10:50:38.470Z,3.61
2018-01-07T10:51:38.506Z,3.69
2018-01-07T10:52:38.269Z,3.76
2018-01-07T10:53:38.269Z,3.76
2018-01-07T10:54:38.275Z,3.83
2018-01-07T10:55:38.544Z,3.76
2018-01-07T10:56:38.565Z,3.87
2018-01-07T10:57:38.578Z,3.83
2018-01-07T10:58:38.590Z,3.84
2018-01-07T10:59:38.628Z,3.88
2018-01-07T11:00:38.388Z,3.97
2018-01-07T11:01:38.640Z,4.05
2018-01-07T11:02:38.428Z,3.86
2018-01-07T11:03:38.450Z,3.8
2018-01-07T11:04:53.472Z,3.87
2018-01-07T11:05:38.704Z,3.94
2018-01-07T11:06:38.720Z,3.87
2018-01-07T11:07:38.731Z,3.84
2018-01-07T11:08:38.741Z,3.86
2018-01-07T11:09:38.773Z,3.65
2018-01-07T11:10:38.765Z,3.62
2018-01-07T11:11:38.786Z,3.62
2018-01-07T11:12:38.564Z,3.61
2018-01-07T11:13:38.815Z,3.6
2018-01-07T11:14:38.334Z,3.57
2018-01-07T11:15:38.857Z,3.51
2018-01-07T11:16:38.866Z,3.48
2018-01-07T11:17:38.874Z,3.45
2018-01-07T11:18:53.564Z,3.42
2018-01-07T11:19:38.899Z,3.54
2018-01-07T11:20:53.591Z,3.72
2018-01-07T11:21:38.691Z,3.65
2018-01-07T11:22:38.963Z,3.65
2018-01-07T11:23:38.996Z,3.6
2018-01-07T11:24:38.998Z,3.48
2018-01-07T11:25:38.994Z,3.47
2018-01-07T11:26:39.032Z,3.5
2018-01-07T11:27:39.028Z,3.31
2018-01-07T11:28:38.803Z,3.35
2018-01-07T11:30:39.072Z,3.6
2018-01-07T11:31:38.846Z,3.62
2018-01-07T11:33:39.106Z,3.73
2018-01-07T11:34:38.904Z,3.76
2018-01-07T11:36:39.154Z,3.86
2018-01-07T11:37:39.190Z,4
2018-01-07T11:38:39.203Z,3.93
2018-01-07T11:39:39.215Z,3.96
2018-01-07T11:40:39.212Z,3.83
2018-01-07T11:42:39.286Z,3.72
2018-01-07T11:43:39.024Z,3.62
2018-01-07T11:44:39.030Z,3.6
2018-01-07T11:45:39.321Z,3.65
2018-01-07T11:46:39.304Z,3.73
2018-01-07T11:47:39.069Z,3.79
2018-01-07T11:48:54.010Z,3.9
2018-01-07T11:49:54.023Z,3.87
2018-01-07T11:50:39.361Z,3.9
2018-01-07T11:51:39.226Z,3.91
2018-01-07T11:52:39.395Z,3.79
2018-01-07T11:53:39.450Z,3.72
2018-01-07T11:54:39.440Z,3.7
2018-01-07T11:55:39.480Z,3.61
2018-01-07T11:56:39.490Z,3.54
2018-01-07T11:57:39.466Z,3.61
2018-01-07T11:58:39.500Z,3.57
2018-01-07T11:59:39.503Z,3.57
2018-01-07T12:00:53.941Z,3.66
2018-01-07T12:02:39.561Z,3.62
2018-01-07T12:03:39.368Z,3.6
2018-01-07T12:04:39.612Z,3.62
2018-01-07T12:05:39.583Z,3.65
2018-01-07T12:06:39.609Z,3.68
2018-01-07T12:07:54.291Z,3.62
2018-01-07T12:08:39.653Z,3.83
2018-01-07T12:09:39.418Z,3.86
2018-01-07T12:10:39.699Z,3.83
2018-01-07T12:11:39.691Z,3.84
2018-01-07T12:12:39.707Z,3.86
2018-01-07T12:14:39.608Z,3.93
2018-01-07T12:15:39.733Z,3.94
2018-01-07T12:16:39.772Z,3.93
2018-01-07T12:17:39.799Z,4.05
2018-01-07T12:18:39.894Z,4.15
2018-01-07T12:19:54.480Z,4.11
2018-01-07T12:20:40.240Z,4.09
2018-01-07T12:21:54.500Z,4.04
2018-01-07T12:22:39.855Z,4.08
2018-01-07T12:23:54.537Z,4.11
2018-01-07T12:24:39.895Z,3.97
2018-01-07T12:25:39.890Z,3.91
2018-01-07T12:26:39.926Z,3.88
2018-01-07T12:27:39.933Z,3.97
2018-01-07T12:28:39.944Z,4.04
2018-01-07T12:29:39.966Z,3.9
2018-01-07T12:30:40.023Z,3.97
2018-01-07T12:31:40.118Z,3.88
2018-01-07T12:33:40.009Z,3.98
2018-01-07T12:34:40.033Z,3.94
2018-01-07T12:35:40.053Z,3.98
2018-01-07T12:36:40.071Z,3.96
2018-01-07T12:37:40.066Z,3.79
2018-01-07T12:38:40.075Z,3.7
2018-01-07T12:39:54.790Z,3.84
2018-01-07T12:40:39.872Z,3.79
2018-01-07T12:41:39.899Z,3.83
2018-01-07T12:42:40.176Z,3.79
2018-01-07T12:43:40.181Z,3.9
2018-01-07T12:44:39.965Z,3.91
2018-01-07T12:45:40.221Z,3.91
2018-01-07T12:46:40.216Z,3.9
2018-01-07T12:48:54.927Z,3.9
2018-01-07T12:49:40.239Z,3.98
2018-01-07T12:50:39.776Z,4.04
2018-01-07T12:51:40.289Z,3.98
2018-01-07T12:52:40.285Z,3.97
2018-01-07T12:53:54.978Z,4.12
2018-01-07T12:54:40.314Z,4.12
2018-01-07T12:55:55.016Z,3.98
2018-01-07T12:56:40.348Z,3.97
2018-01-07T12:57:40.362Z,3.93
2018-01-07T12:59:40.407Z,3.9
2018-01-07T13:00:40.431Z,3.87
2018-01-07T13:01:40.178Z,3.73
2018-01-07T13:04:40.493Z,3.79
2018-01-07T13:05:55.179Z,3.76
2018-01-07T13:06:55.191Z,3.79
2018-01-07T13:07:40.530Z,3.83
2018-01-07T13:08:40.566Z,3.86
2018-01-07T13:09:40.584Z,3.84
2018-01-07T13:10:54.991Z,3.75
2018-01-07T13:11:40.573Z,3.72
2018-01-07T13:12:40.345Z,3.69
2018-01-07T13:13:40.620Z,3.73
2018-01-07T13:16:40.650Z,3.6
2018-01-07T13:17:40.663Z,3.61
2018-01-07T13:18:40.718Z,3.62
2018-01-07T13:20:40.723Z,3.7
2018-01-07T13:21:40.715Z,3.79
2018-01-07T13:22:40.735Z,3.66
2018-01-07T13:23:40.750Z,3.79
2018-01-07T13:24:40.764Z,3.75
2018-01-07T13:25:40.815Z,3.7
2018-01-07T13:26:40.829Z,3.6
2018-01-07T13:27:40.840Z,3.61
2018-01-07T13:28:40.828Z,3.66
2018-01-07T13:29:40.880Z,3.61
2018-01-07T13:30:40.365Z,3.75
2018-01-07T13:31:40.866Z,3.72
2018-01-07T13:33:40.662Z,3.57
2018-01-07T13:34:40.687Z,3.61
2018-01-07T13:35:40.928Z,3.55
2018-01-07T13:36:40.947Z,3.61
2018-01-07T13:37:40.974Z,3.57
2018-01-07T13:38:40.473Z,3.62
2018-01-07T13:39:40.988Z,3.6
2018-01-07T13:41:40.779Z,3.47
2018-01-07T13:42:55.720Z,3.45
2018-01-07T13:43:41.061Z,3.36
2018-01-07T13:44:41.059Z,3.26
2018-01-07T13:45:40.836Z,3.23
2018-01-07T13:46:41.092Z,3.32
2018-01-07T13:47:41.122Z,3.45
2018-01-07T13:48:41.142Z,3.48
2018-01-07T13:49:41.132Z,3.36
2018-01-07T13:50:41.166Z,3.32
2018-01-07T13:51:41.160Z,3.33
2018-01-07T13:52:41.168Z,3.35
2018-01-07T13:53:41.189Z,3.39
2018-01-07T13:54:55.883Z,3.32
2018-01-07T13:55:41.245Z,3.23
2018-01-07T13:56:55.908Z,3.36
2018-01-07T13:57:41.289Z,3.35
2018-01-07T13:58:55.703Z,3.33
2018-01-07T13:59:41.273Z,3.35
2018-01-07T14:00:41.324Z,3.42
2018-01-07T14:01:41.305Z,3.4
2018-01-07T14:02:41.336Z,3.33
2018-01-07T14:03:41.103Z,3.32
2018-01-07T14:04:41.367Z,3.39
2018-01-07T14:05:41.361Z,3.42
2018-01-07T14:06:41.385Z,3.32
2018-01-07T14:07:41.155Z,3.36
2018-01-07T14:08:41.405Z,3.39
2018-01-07T14:09:56.116Z,3.42
2018-01-07T14:10:41.436Z,3.35
2018-01-07T14:11:41.460Z,3.31
2018-01-07T14:12:41.463Z,3.28
2018-01-07T14:13:41.230Z,3.4
2018-01-07T14:14:56.193Z,3.18
2018-01-07T14:15:41.536Z,3.18
2018-01-07T14:16:41.540Z,3.15
2018-01-07T14:17:41.537Z,3.21
2018-01-07T14:18:41.577Z,3.2
2018-01-07T14:19:41.605Z,3.06
2018-01-07T14:20:41.647Z,3.08
2018-01-07T14:21:41.357Z,3.2
2018-01-07T14:22:41.608Z,3.08
2018-01-07T14:23:41.633Z,3.13
2018-01-07T14:24:41.637Z,3.06
2018-01-07T14:25:41.687Z,2.99
2018-01-07T14:26:41.687Z,2.96
2018-01-07T14:27:41.710Z,2.96
2018-01-07T14:28:41.739Z,2.96
2018-01-07T14:29:41.712Z,2.93